Prentiss, North Carolina
Current Conditions -  °F | °C
As of 9:16 AM on Saturday 20 Dec 2014 (Local Time) from KRHP Reporting Station
Overcast Overcast  
Wind Chill: 39°   Ceiling: 1700
Heat Index: 39°   Visibility: 7mi
Dew Point: 39°   Wind: 3mph
Humidity: 100%   Direction: 240°WSW
Pressure: 30.19"   Gusts: NA
Location:  35.1737°N, 83.4215°W
Report Text: KRHP 201416Z AUTO 24003KT 7SM BKN017 OVC022 04/04 A3019 RMK AO2
Loading
Personal Weather Stations






























Interactive Weather Map New forecast layout! Learn more

10-Day Weather Forecast

Advertisements
Track Severe Weather on mobile